SBCR/CMG METAR and TAF weather

Enter ICAO airport designator
Station Type Date Time Source
SBCR METAR 2022/01/27 21:00 UTC NOAA

SBCR 272100Z 25003KT CAVOK 28/23 Q1006


Station Type Date Time Source
SBCR Decoded METAR 2022/01/27 21:00 UTC NOAA

Corumba, Brazil (SBCR) 19-05S 057-30W
Jan 27, 2022 - 04:00 PM EST / 2022.01.27 2100 UTC
Wind: from the WSW (250 degrees) at 3 MPH (3 KT):0
Visibility: greater than 7 mile(s):0
Temperature: 82 F (28 C)
Dew Point: 73 F (23 C)
Relative Humidity: 74%
Pressure (altimeter): 29.71 in. Hg (1006 hPa)
ob: SBCR 272100Z 25003KT CAVOK 28/23 Q1006
cycle: 21

Station Type Date Time Source
SBCR TAF 2022/01/27 18:39 UTC NOAA

TAF TAF SBCR 271544Z 2718/2818 28008KT 9999 SCT025 TN22/2809Z TX34/2817Z
TEMPO 2718/2721 TSRA BKN025 FEW040CB
BECMG 2721/2723 01005KT
BECMG 2809/2811 FEW025
BECMG 2813/2815 33005KT SCT025
BECMG 2815/2817 28008KT
RMK PGM

Example: see airport list